KOSU/OSU METAR and TAF weather

Enter ICAO airport designator
Station Type Date Time Source
KOSU METAR 2020/01/26 18:53 UTC NOAA

KOSU 261853Z 24012G18KT 10SM OVC012 01/M02 A2990 RMK AO2 SLP134 T00111017


Station Type Date Time Source
KOSU Decoded METAR 2020/01/26 18:53 UTC NOAA

OHIO STATE UNIVERSITY AIRPORT , OH, United States (KOSU) 40-05N 083-05W 280M
Jan 26, 2020 - 01:53 PM EST / 2020.01.26 1853 UTC
Wind: from the WSW (240 degrees) at 14 MPH (12 KT) gusting to 21 MPH (18 KT):0
Visibility: 10 mile(s):0
Sky conditions: overcast
Temperature: 34.0 F (1.1 C)
Windchill: 24 F (-4 C):1
Dew Point: 28.9 F (-1.7 C)
Relative Humidity: 81%
Pressure (altimeter): 29.9 in. Hg (1012 hPa)
ob: KOSU 261853Z 24012G18KT 10SM OVC012 01/M02 A2990 RMK AO2 SLP134 T00111017
cycle: 19

Station Type Date Time Source
KOSU TAF UTC NOAA

Error!

Example: see airport list